Data for 02/28/2015

Time Sea-Level Adjusted Pressure Absolute Pressure Temperature Relative Humidity Dew Point   
(mb) (inHg) (mb) (inHg) (C) (F) (%) (C) (F)
00:05 1015 29.97 844 24.92 -9.6 14.8 74 -13.4 7.9
00:10 1015 29.97 844 24.92 -9.6 14.7 74 -13.4 7.9
00:15 1015 29.97 844 24.92 -9.6 14.8 74 -13.4 7.9
00:20 1015 29.97 844 24.92 -9.6 14.8 74 -13.4 7.8
00:25 1015 29.97 844 24.92 -9.6 14.8 74 -13.4 7.8
00:30 1015 29.97 844 24.92 -9.6 14.8 74 -13.4 7.9
00:35 1015 29.97 845 24.95 -9.6 14.8 74 -13.3 8
00:40 1015 29.97 845 24.95 -9.6 14.8 74 -13.3 8.1
00:45 1015 29.97 845 24.95 -9.5 14.9 75 -13.2 8.3
00:50 1015 29.97 845 24.95 -9.5 15 75 -13.1 8.4
00:55 1015 29.97 845 24.95 -9.4 15 75 -13.1 8.4
01:00 1015 29.97 845 24.95 -9.4 15.1 74 -13.2 8.3
01:05 1015 29.97 845 24.95 -9.4 15.2 74 -13.1 8.4
01:10 1015 29.97 845 24.95 -9.3 15.2 74 -13.2 8.2
01:15 1015 29.97 845 24.95 -9.3 15.3 74 -13.2 8.3
01:20 1015 29.97 845 24.95 -9.3 15.3 74 -13.1 8.4
01:25 1015 29.97 845 24.95 -9.2 15.4 72 -13.4 7.9
01:30 1015 29.97 845 24.95 -9.3 15.2 72 -13.6 7.6
01:35 1015 29.97 845 24.95 -9.4 15.1 71 -13.7 7.4
01:40 1015 29.97 845 24.95 -9.4 15 71 -13.8 7.1
01:45 1015 29.97 845 24.95 -9.5 14.9 71 -13.8 7.2
01:50 1015 29.97 845 24.95 -9.5 14.8 71 -13.8 7.2
01:55 1015 29.97 845 24.95 -9.6 14.7 71 -13.9 6.9
02:00 1015 29.97 845 24.95 -9.6 14.7 71 -13.9 6.9
02:05 1015 29.97 845 24.95 -9.7 14.6 71 -14 6.9
02:10 1015 29.97 845 24.95 -9.8 14.5 72 -14 6.8
02:15 1015 29.97 845 24.95 -9.8 14.3 72 -14 6.7
02:20 1016 30 845 24.95 -9.9 14.2 71 -14.2 6.4
02:25 1015 29.97 845 24.95 -9.9 14.1 71 -14.3 6.3
02:30 1015 29.97 845 24.95 -10 14 71 -14.2 6.4
02:35 1016 30 845 24.95 -10.1 13.9 71 -14.3 6.3
02:40 1016 30 845 24.95 -10.1 13.9 71 -14.4 6.1
02:45 1016 30 845 24.95 -10.1 13.8 71 -14.4 6.2
02:50 1016 30 845 24.95 -10.2 13.7 72 -14.4 6.2
02:55 1016 30 845 24.95 -10.2 13.7 71 -14.5 5.9
03:00 1016 30 845 24.95 -10.2 13.6 71 -14.5 6
03:05 1016 30 845 24.95 -10.3 13.5 72 -14.4 6
03:10 1016 30 845 24.95 -10.4 13.3 73 -14.4 6
03:15 1016 30 845 24.95 -10.5 13.1 72 -14.5 5.8
03:20 1016 30 845 24.95 -10.6 12.9 73 -14.6 5.7
03:25 1016 30 845 24.95 -10.7 12.8 73 -14.7 5.6
03:30 1016 30 845 24.95 -10.7 12.7 72 -14.8 5.4
03:35 1016 30 845 24.95 -10.8 12.6 73 -14.8 5.4
03:40 1016 30 845 24.95 -10.9 12.4 73 -14.8 5.4
03:45 1016 30 845 24.95 -11 12.3 73 -14.8 5.3
03:50 1016 30 845 24.95 -11 12.1 73 -14.9 5.1
03:55 1016 30 845 24.95 -11.1 12 73 -15.1 4.9
04:00 1016 30 845 24.95 -11.1 12 73 -15.1 4.9
04:05 1016 30 845 24.95 -11.2 11.9 73 -15 4.9
04:10 1016 30 845 24.95 -11.4 11.5 75 -15 5.1
04:15 1016 30 845 24.95 -11.6 11.1 75 -15.1 4.8
04:20 1016 30 845 24.95 -11.6 11.1 75 -15.2 4.6
04:25 1016 30 845 24.95 -11.6 11.2 74 -15.3 4.5
04:30 1016 30 845 24.95 -11.6 11.2 75 -15.2 4.6
04:35 1016 30 845 24.95 -11.5 11.3 74 -15.3 4.5
04:40 1016 30 845 24.95 -11.5 11.2 74 -15.3 4.4
04:45 1016 30 845 24.95 -11.5 11.2 74 -15.3 4.5
04:50 1016 30 845 24.95 -11.5 11.3 74 -15.3 4.4
04:55 1016 30 845 24.95 -11.5 11.3 73 -15.4 4.2
05:00 1016 30 845 24.95 -11.5 11.3 73 -15.5 4.2
05:05 1016 30 845 24.95 -11.5 11.3 73 -15.4 4.2
05:10 1016 30 845 24.95 -11.6 11.2 73 -15.4 4.2
05:15 1016 30 845 24.95 -11.6 11.1 74 -15.4 4.3
05:20 1016 30 845 24.95 -11.7 11 74 -15.5 4.2
05:25 1016 30 845 24.95 -11.7 10.9 74 -15.4 4.2
05:30 1016 30 845 24.95 -11.8 10.7 75 -15.4 4.3
05:35 1016 30 845 24.95 -11.9 10.7 76 -15.3 4.4
05:40 1016 30 845 24.95 -11.9 10.7 76 -15.3 4.4
05:45 1016 30 845 24.95 -11.8 10.8 76 -15.3 4.5
05:50 1016 30 845 24.95 -11.8 10.8 76 -15.3 4.5
05:55 1016 30 845 24.95 -11.7 10.9 76 -15.2 4.6
06:00 1016 30 845 24.95 -11.7 11 75 -15.2 4.6
06:05 1016 30 845 24.95 -11.6 11.1 75 -15.2 4.6
06:10 1016 30 846 24.98 -11.6 11.1 75 -15.2 4.6
06:15 1016 30 846 24.98 -11.6 11.2 75 -15.2 4.6
06:20 1016 30 846 24.98 -11.5 11.2 74 -15.3 4.5
06:25 1016 30 846 24.98 -11.5 11.4 74 -15.2 4.6
06:30 1016 30 846 24.98 -11.4 11.5 74 -15.2 4.6
06:35 1016 30 846 24.98 -11.4 11.6 74 -15.2 4.6
06:40 1017 30.03 846 24.98 -11.3 11.6 73 -15.2 4.6
06:45 1017 30.03 846 24.98 -11.3 11.6 74 -15.1 4.8
06:50 1017 30.03 846 24.98 -11.2 11.8 74 -15.1 4.9
06:55 1017 30.03 846 24.98 -11.2 11.9 74 -15 5.1
07:00 1017 30.03 846 24.98 -11.2 11.9 74 -15 5.1
07:05 1017 30.03 846 24.98 -11.2 11.8 74 -15 5.1
07:10 1017 30.03 846 24.98 -11.3 11.7 74 -15 5.1
07:15 1017 30.03 846 24.98 -11.3 11.6 75 -14.9 5.1
07:20 1017 30.03 846 24.98 -11.4 11.5 76 -14.9 5.2
07:25 1017 30.03 846 24.98 -11.4 11.5 75 -14.9 5.1
07:30 1017 30.03 846 24.98 -11.4 11.4 76 -14.9 5.1
07:35 1017 30.03 846 24.98 -11.4 11.4 75 -15 5.1
07:40 1017 30.03 846 24.98 -11.4 11.4 75 -15 5
07:45 1017 30.03 846 24.98 -11.5 11.4 75 -15.1 4.8
07:50 1017 30.03 846 24.98 -11.5 11.4 75 -15.1 4.9
07:55 1017 30.03 846 24.98 -11.4 11.4 75 -15 5.1
08:00 1017 30.03 846 24.98 -11.4 11.5 75 -14.9 5.1
08:05 1017 30.03 846 24.98 -11.3 11.6 75 -14.9 5.1
08:10 1017 30.03 846 24.98 -11.3 11.7 77 -14.6 5.7
08:15 1017 30.03 846 24.98 -11.3 11.7 78 -14.4 6.2
08:20 1017 30.03 846 24.98 -11.4 11.6 79 -14.4 6.1
08:25 1017 30.03 846 24.98 -11.3 11.6 80 -14.2 6.5
08:30 1017 30.03 846 24.98 -11.3 11.7 77 -14.5 5.8
08:35 1017 30.03 846 24.98 -11.3 11.7 80 -14.1 6.5
08:40 1017 30.03 846 24.98 -11.3 11.7 80 -14.1 6.6
08:45 1017 30.03 847 25.01 -11.3 11.6 81 -14 6.8
08:50 1017 30.03 847 25.01 -11.3 11.6 80 -14.1 6.7
08:55 1017 30.03 847 25.01 -11.3 11.6 79 -14.3 6.2
09:00 1018 30.06 847 25.01 -11.3 11.6 79 -14.2 6.4
09:05 1018 30.06 847 25.01 -11.2 11.8 78 -14.3 6.3
09:10 1018 30.06 847 25.01 -11.2 11.8 78 -14.3 6.2
09:15 1018 30.06 847 25.01 -11.2 11.8 79 -14.2 6.4
09:20 1018 30.06 847 25.01 -11.1 12.1 76 -14.5 5.9
09:25 1018 30.06 847 25.01 -10.7 12.7 74 -14.6 5.7
09:30 1018 30.06 847 25.01 -10.6 13 72 -14.6 5.7
09:35 1018 30.06 847 25.01 -10.4 13.2 72 -14.5 5.8
09:40 1018 30.06 847 25.01 -10 14.1 69 -14.7 5.5
09:45 1018 30.06 847 25.01 -9.6 14.7 68 -14.5 5.9
09:50 1018 30.06 847 25.01 -10 14.1 68 -14.8 5.4
09:55 1018 30.06 847 25.01 -10.3 13.5 71 -14.7 5.6
10:00 1018 30.06 847 25.01 -10.3 13.5 68 -15.1 4.9
10:05 1018 30.06 847 25.01 -10.1 13.8 65 -15.5 4.1
10:10 1018 30.06 847 25.01 -10.1 13.8 65 -15.5 4.1
10:15 1018 30.06 847 25.01 -10 14.1 65 -15.3 4.4
10:20 1018 30.06 847 25.01 -9.7 14.5 64 -15.3 4.4
10:25 1018 30.06 847 25.01 -9.5 14.8 64 -15.2 4.7
10:30 1018 30.06 847 25.01 -9.4 15.1 63 -15.1 4.8
10:35 1018 30.06 847 25.01 -9.2 15.5 62 -15.1 4.8
10:40 1018 30.06 847 25.01 -9.3 15.3 60 -15.7 3.8
10:45 1018 30.06 847 25.01 -9.5 14.9 62 -15.4 4.2
10:50 1018 30.06 847 25.01 -9.4 15.1 63 -15.2 4.7
10:55 1018 30.06 847 25.01 -9.3 15.4 62 -15.2 4.6
11:00 1018 30.06 847 25.01 -9.2 15.5 61 -15.3 4.5
11:05 1018 30.06 847 25.01 -9.2 15.5 63 -15 5
11:10 1018 30.06 847 25.01 -8.9 15.9 61 -15.2 4.6
11:15 1018 30.06 847 25.01 -8.5 16.7 68 -13.3 8
11:20 1018 30.06 847 25.01 -8.3 17.1 70 -12.8 9
11:25 1018 30.06 847 25.01 -8.3 17 69 -13 8.5
11:30 1018 30.06 847 25.01 -8.6 16.6 71 -13 8.7
11:35 1018 30.06 847 25.01 -8.6 16.6 71 -13 8.7
11:40 1018 30.06 847 25.01 -8.8 16.1 72 -12.9 8.7
11:45 1018 30.06 847 25.01 -9 15.8 74 -12.9 8.8
11:50 1018 30.06 847 25.01 -9 15.7 73 -13 8.6
11:55 1018 30.06 847 25.01 -9.1 15.7 73 -13.1 8.4
12:00 1018 30.06 847 25.01 -9.2 15.5 73 -13.1 8.5
12:05 1018 30.06 847 25.01 -9.1 15.7 72 -13.3 8.1
12:10 1018 30.06 847 25.01 -9 15.9 71 -13.4 7.9
12:15 1018 30.06 847 25.01 -8.8 16.1 69 -13.5 7.7
12:20 1018 30.06 847 25.01 -8.4 16.8 67 -13.6 7.6
12:25 1018 30.06 847 25.01 -7.8 17.9 64 -13.5 7.7
12:30 1018 30.06 847 25.01 -7.7 18.1 65 -13.3 8.1
12:35 1018 30.06 847 25.01 -7.8 18 64 -13.4 7.9
12:40 1018 30.06 847 25.01 -7.7 18.1 64 -13.4 7.9
12:45 1018 30.06 847 25.01 -7.9 17.8 65 -13.4 7.9
12:50 1018 30.06 847 25.01 -7.7 18.2 64 -13.4 7.8
12:55 1018 30.06 847 25.01 -7.8 18 65 -13.2 8.2
13:00 1018 30.06 847 25.01 -8.2 17.2 66 -13.5 7.8
13:05 1018 30.06 847 25.01 -8.1 17.4 64 -13.8 7.2
13:10 1018 30.06 847 25.01 -7.9 17.7 64 -13.5 7.6
13:15 1018 30.06 847 25.01 -7.2 19 60 -13.8 7.2
13:20 1018 30.06 847 25.01 -7.2 19 60 -13.7 7.3
13:25 1018 30.06 847 25.01 -7.7 18.2 61 -13.9 7
13:30 1018 30.06 847 25.01 -6.7 19.9 56 -14.1 6.6
13:35 1018 30.06 847 25.01 -6.2 20.9 52 -14.4 6
13:40 1018 30.06 847 25.01 -6 21.3 51 -14.5 5.9
13:45 1018 30.06 847 25.01 -5.3 22.5 48 -14.5 5.9
13:50 1018 30.06 847 25.01 -5.4 22.3 52 -13.8 7.2
13:55 1018 30.06 847 25.01 -5.2 22.7 53 -13.2 8.2
14:00 1018 30.06 847 25.01 -5.5 22.1 54 -13.4 7.9
14:05 1018 30.06 847 25.01 -5.9 21.4 56 -13.3 8.1
14:10 1018 30.06 847 25.01 -6.2 20.9 56 -13.6 7.5
14:15 1018 30.06 847 25.01 -6.1 20.9 55 -13.9 7
14:20 1018 30.06 847 25.01 -6 21.3 53 -14 6.7
14:25 1018 30.06 847 25.01 -6 21.2 55 -13.7 7.3
14:30 1018 30.06 847 25.01 -5.9 21.4 55 -13.6 7.6
14:35 1018 30.06 847 25.01 -6.5 20.2 56 -13.9 6.9
14:40 1018 30.06 847 25.01 -6 21.1 55 -13.8 7.2
14:45 1018 30.06 847 25.01 -6 21.3 55 -13.7 7.3
14:50 1018 30.06 847 25.01 -5.9 21.4 54 -13.7 7.3
14:55 1018 30.06 847 25.01 -6.1 21 55 -13.7 7.3
15:00 1018 30.06 847 25.01 -6.1 21.1 56 -13.6 7.6
15:05 1018 30.06 847 25.01 -5.9 21.4 53 -13.9 7
15:10 1018 30.06 847 25.01 -5.2 22.6 51 -13.9 6.9
15:15 1018 30.06 847 25.01 -5.6 22 52 -14 6.8
15:20 1018 30.06 847 25.01 -5.1 22.8 50 -13.9 6.9
15:25 1018 30.06 847 25.01 -4.8 23.3 49 -14 6.9
15:30 1018 30.06 847 25.01 -5.1 22.9 50 -14 6.8
15:35 1018 30.06 847 25.01 -5.4 22.4 52 -13.8 7.1
15:40 1018 30.06 847 25.01 -5.6 21.9 53 -13.8 7.2
15:45 1018 30.06 847 25.01 -5.8 21.6 53 -13.9 7
15:50 1018 30.06 847 25.01 -6.2 20.9 54 -14 6.9
15:55 1018 30.06 847 25.01 -5.7 21.7 53 -13.8 7.2
16:00 1018 30.06 847 25.01 -5.4 22.3 53 -13.6 7.5
16:05 1018 30.06 847 25.01 -5.3 22.4 51 -14 6.8
16:10 1018 30.06 847 25.01 -5.4 22.2 51 -13.9 6.9
16:15 1018 30.06 847 25.01 -5.3 22.4 51 -14.1 6.7
16:20 1018 30.06 847 25.01 -5.8 21.6 54 -13.8 7.2
16:25 1018 30.06 847 25.01 -5.7 21.8 53 -13.8 7.2
16:30 1018 30.06 847 25.01 -5.5 22.1 52 -13.9 7
16:35 1018 30.06 847 25.01 -5.1 22.8 50 -14 6.8
16:40 1018 30.06 847 25.01 -5.2 22.6 50 -14 6.8
16:45 1018 30.06 847 25.01 -5.2 22.6 50 -14.1 6.6
16:50 1018 30.06 847 25.01 -5.4 22.2 51 -14 6.8
16:55 1018 30.06 847 25.01 -5.3 22.5 52 -13.7 7.4
17:00 1018 30.06 847 25.01 -5.2 22.6 51 -13.9 7
17:05 1018 30.06 847 25.01 -5.1 22.8 48 -14.5 5.8
17:10 1018 30.06 847 25.01 -4.7 23.5 47 -14.3 6.3
17:15 1018 30.06 847 25.01 -4.3 24.3 46 -14.3 6.2
17:20 1018 30.06 847 25.01 -4.7 23.5 50 -13.5 7.6
17:25 1018 30.06 847 25.01 -5.1 22.8 51 -13.9 7.1
17:30 1018 30.06 847 25.01 -5.1 22.8 50 -13.9 7
17:35 1018 30.06 847 25.01 -4.9 23.1 50 -13.8 7.1
17:40 1018 30.06 847 25.01 -5.2 22.6 53 -13.5 7.8
17:45 1018 30.06 847 25.01 -5.4 22.3 52 -13.6 7.4
17:50 1018 30.06 847 25.01 -5.2 22.6 52 -13.6 7.5
17:55 1018 30.06 847 25.01 -5.3 22.4 53 -13.6 7.5
18:00 1018 30.06 847 25.01 -5.9 21.4 56 -13.4 7.8
18:05 1018 30.06 847 25.01 -6.2 20.8 57 -13.5 7.7
18:10 1018 30.06 847 25.01 -6.4 20.5 57 -13.6 7.6
18:15 1018 30.06 848 25.04 -6.2 20.8 56 -13.6 7.5
18:20 1018 30.06 848 25.04 -6.3 20.6 56 -13.6 7.5
18:25 1018 30.06 848 25.04 -6.4 20.5 56 -13.8 7.2
18:30 1019 30.09 848 25.04 -6.4 20.5 57 -13.6 7.6
18:35 1019 30.09 848 25.04 -6.5 20.2 57 -13.8 7.2
18:40 1019 30.09 848 25.04 -6.7 20 58 -13.7 7.3
18:45 1019 30.09 848 25.04 -6.6 20.1 57 -13.8 7.2
18:50 1019 30.09 848 25.04 -6.6 20.2 58 -13.5 7.7
18:55 1019 30.09 848 25.04 -6.5 20.3 57 -13.7 7.4
19:00 1019 30.09 848 25.04 -6.9 19.6 60 -13.5 7.7
19:05 1019 30.09 848 25.04 -7 19.5 59 -13.6 7.4
19:10 1019 30.09 848 25.04 -7.2 19.1 60 -13.7 7.3
19:15 1019 30.09 848 25.04 -7.2 19 59 -13.9 7
19:20 1019 30.09 848 25.04 -7.3 18.9 60 -13.8 7.1
19:25 1019 30.09 848 25.04 -7.3 18.9 60 -13.8 7.2
19:30 1019 30.09 848 25.04 -7.3 18.8 61 -13.6 7.5
19:35 1019 30.09 848 25.04 -7.3 18.8 60 -13.7 7.3
19:40 1019 30.09 848 25.04 -7.4 18.7 62 -13.5 7.7
19:45 1019 30.09 848 25.04 -7.4 18.7 62 -13.5 7.6
19:50 1019 30.09 848 25.04 -7.4 18.6 62 -13.5 7.6
19:55 1019 30.09 849 25.07 -7.5 18.5 61 -13.7 7.3
20:00 1019 30.09 849 25.07 -7.5 18.4 62 -13.5 7.6
20:05 1019 30.09 849 25.07 -7.6 18.4 62 -13.6 7.5
20:10 1019 30.09 849 25.07 -7.6 18.4 61 -13.8 7.1
20:15 1020 30.12 849 25.07 -7.5 18.6 60 -13.9 6.9
20:20 1020 30.12 849 25.07 -7.4 18.7 61 -13.7 7.3
20:25 1020 30.12 849 25.07 -7.4 18.7 61 -13.6 7.5
20:30 1020 30.12 849 25.07 -7.4 18.7 61 -13.7 7.3
20:35 1020 30.12 849 25.07 -7.4 18.6 61 -13.6 7.4
20:40 1020 30.12 849 25.07 -7.5 18.5 61 -13.7 7.3
20:45 1020 30.12 849 25.07 -7.5 18.5 62 -13.7 7.4
20:50 1020 30.12 849 25.07 -7.6 18.4 61 -13.8 7.2
20:55 1020 30.12 849 25.07 -7.7 18.2 61 -13.9 6.9
21:00 1020 30.12 849 25.07 -7.8 17.9 61 -14.1 6.7
21:05 1020 30.12 849 25.07 -7.8 18 61 -14.1 6.7
21:10 1020 30.12 849 25.07 -7.8 18 62 -13.9 7
21:15 1020 30.12 849 25.07 -7.8 18 62 -14 6.9
21:20 1020 30.12 849 25.07 -8 17.5 62 -14.1 6.7
21:25 1020 30.12 849 25.07 -8.1 17.4 63 -14 6.7
21:30 1020 30.12 850 25.1 -8 17.6 61 -14.2 6.5
21:35 1020 30.12 850 25.1 -8.1 17.4 62 -14.2 6.5
21:40 1020 30.12 850 25.1 -8.2 17.2 62 -14.2 6.5
21:45 1020 30.12 850 25.1 -8.4 16.9 63 -14.3 6.3
21:50 1020 30.12 850 25.1 -8.4 16.9 63 -14.3 6.3
21:55 1020 30.12 850 25.1 -8.4 16.8 63 -14.2 6.4
22:00 1021 30.15 850 25.1 -8.4 16.9 63 -14.2 6.4
22:05 1021 30.15 850 25.1 -8.4 16.9 63 -14.2 6.5
22:10 1021 30.15 850 25.1 -8.4 16.8 63 -14.3 6.3
22:15 1021 30.15 850 25.1 -8.4 16.8 63 -14.3 6.3
22:20 1021 30.15 850 25.1 -8.5 16.8 63 -14.3 6.2
22:25 1021 30.15 850 25.1 -8.5 16.7 62 -14.5 5.9
22:30 1021 30.15 850 25.1 -8.6 16.5 63 -14.5 6
22:35 1021 30.15 850 25.1 -8.7 16.3 63 -14.5 5.9
22:40 1021 30.15 850 25.1 -8.7 16.3 63 -14.5 5.8
22:45 1021 30.15 850 25.1 -8.9 16.1 63 -14.6 5.7
22:50 1021 30.15 850 25.1 -9 15.8 63 -14.7 5.5
22:55 1021 30.15 850 25.1 -9.1 15.6 64 -14.7 5.5
23:00 1021 30.15 850 25.1 -9.1 15.6 63 -14.9 5.2
23:05 1021 30.15 851 25.13 -9.2 15.5 63 -14.9 5.1
23:10 1021 30.15 851 25.13 -9.3 15.3 64 -14.9 5.2
23:15 1021 30.15 851 25.13 -9.4 15.1 66 -14.7 5.5
23:20 1021 30.15 851 25.13 -9.6 14.7 66 -14.8 5.3
23:25 1022 30.18 851 25.13 -9.8 14.4 65 -15.1 4.8
23:30 1022 30.18 851 25.13 -9.8 14.4 65 -15.2 4.6
23:35 1022 30.18 851 25.13 -9.8 14.5 64 -15.4 4.4
23:40 1022 30.18 851 25.13 -9.8 14.5 63 -15.4 4.2
23:45 1022 30.18 851 25.13 -9.8 14.5 63 -15.5 4.2
23:50 1022 30.18 851 25.13 -9.8 14.4 64 -15.5 4.2
23:55 1022 30.18 851 25.13 -9.8 14.4 63 -15.6 4
24:00 1022 30.18 851 25.13 -9.8 14.4 63 -15.6 4